createdAt,value
2023-03-12T00:01:20.837Z,2.87
2023-03-12T00:03:49.220Z,2.87
2023-03-12T00:06:16.615Z,2.81
2023-03-12T00:08:43.203Z,2.74
2023-03-12T00:11:13.161Z,2.64
2023-03-12T00:13:40.465Z,2.69
2023-03-12T00:16:16.170Z,2.53
2023-03-12T00:18:43.735Z,2.67
2023-03-12T00:21:10.579Z,2.58
2023-03-12T00:23:37.101Z,2.74
2023-03-12T00:26:06.277Z,2.64
2023-03-12T00:28:34.939Z,2.76
2023-03-12T00:31:02.982Z,2.59
2023-03-12T00:33:29.807Z,2.61
2023-03-12T00:35:56.728Z,2.60
2023-03-12T00:38:23.204Z,2.74
2023-03-12T00:40:49.629Z,2.75
2023-03-12T00:43:16.061Z,2.51
2023-03-12T00:45:42.550Z,2.71
2023-03-12T00:48:09.203Z,2.66
2023-03-12T00:50:35.665Z,2.74
2023-03-12T00:53:02.125Z,2.80
2023-03-12T00:55:28.653Z,2.66
2023-03-12T00:57:55.398Z,2.48
2023-03-12T01:00:22.229Z,2.56
2023-03-12T01:02:48.708Z,2.46
2023-03-12T01:05:15.606Z,2.51
2023-03-12T01:07:42.620Z,2.54
2023-03-12T01:10:10.521Z,2.61
2023-03-12T01:12:37.164Z,2.46
2023-03-12T01:15:05.561Z,2.55
2023-03-12T01:17:32.165Z,2.40
2023-03-12T01:19:58.823Z,2.38
2023-03-12T01:22:25.497Z,2.50
2023-03-12T01:24:51.931Z,2.54
2023-03-12T01:27:18.501Z,2.60
2023-03-12T01:29:44.965Z,2.61
2023-03-12T01:32:11.459Z,2.63
2023-03-12T01:34:37.967Z,2.58
2023-03-12T01:37:04.569Z,2.46
2023-03-12T01:39:31.083Z,2.44
2023-03-12T01:41:57.851Z,2.54
2023-03-12T01:44:24.318Z,2.55
2023-03-12T01:46:50.731Z,2.62
2023-03-12T01:49:25.431Z,2.68
2023-03-12T01:52:15.224Z,2.66
2023-03-12T01:54:48.384Z,2.63
2023-03-12T01:57:20.780Z,2.57
2023-03-12T01:59:52.005Z,2.42
2023-03-12T02:02:24.936Z,2.52
2023-03-12T02:04:56.882Z,2.56
2023-03-12T02:07:23.414Z,2.48
2023-03-12T02:09:49.931Z,2.47
2023-03-12T02:12:17.636Z,2.64
2023-03-12T02:14:44.228Z,2.56
2023-03-12T02:17:11.117Z,2.46
2023-03-12T02:19:47.547Z,2.57
2023-03-12T02:22:15.277Z,2.64
2023-03-12T02:24:54.009Z,2.58
2023-03-12T02:27:22.033Z,2.65
2023-03-12T02:29:49.036Z,2.64
2023-03-12T02:32:21.506Z,2.52
2023-03-12T02:34:48.114Z,2.62
2023-03-12T02:37:14.762Z,2.63
2023-03-12T02:39:42.669Z,2.50
2023-03-12T02:42:09.096Z,2.50
2023-03-12T02:44:37.918Z,2.57
2023-03-12T02:47:05.246Z,2.56
2023-03-12T02:49:34.478Z,2.49
2023-03-12T02:52:01.809Z,2.70
2023-03-12T02:54:29.467Z,2.56
2023-03-12T02:56:56.566Z,2.65
2023-03-12T02:59:26.531Z,2.63
2023-03-12T03:01:58.380Z,2.67
2023-03-12T03:04:25.956Z,2.58
2023-03-12T03:06:52.642Z,2.67
2023-03-12T03:09:20.855Z,2.48
2023-03-12T03:11:47.444Z,2.36
2023-03-12T03:14:13.906Z,2.60
2023-03-12T03:16:40.593Z,2.60
2023-03-12T03:19:07.681Z,2.64
2023-03-12T03:21:34.918Z,2.66
2023-03-12T03:24:01.317Z,2.55
2023-03-12T03:26:27.816Z,2.51
2023-03-12T03:28:54.755Z,2.67
2023-03-12T03:31:21.710Z,2.64
2023-03-12T03:33:48.834Z,2.62
2023-03-12T03:36:16.136Z,2.57
2023-03-12T03:38:47.056Z,2.72
2023-03-12T03:41:14.048Z,2.57
2023-03-12T03:43:40.506Z,2.58
2023-03-12T03:46:07.118Z,2.65
2023-03-12T03:48:33.852Z,2.66
2023-03-12T03:51:02.052Z,2.58
2023-03-12T03:53:28.802Z,2.59
2023-03-12T03:55:55.300Z,2.67
2023-03-12T03:58:22.016Z,2.57
2023-03-12T04:00:48.588Z,2.64
2023-03-12T04:03:15.119Z,2.57
2023-03-12T04:05:45.286Z,2.54
2023-03-12T04:08:13.227Z,2.60
2023-03-12T04:10:39.998Z,2.57
2023-03-12T04:13:06.507Z,2.53
2023-03-12T04:15:32.931Z,2.57
2023-03-12T04:17:59.481Z,2.44
2023-03-12T04:20:25.950Z,2.44
2023-03-12T04:22:52.411Z,2.48
2023-03-12T04:25:19.232Z,2.40
2023-03-12T04:27:45.747Z,2.46
2023-03-12T04:30:12.719Z,2.56
2023-03-12T04:32:39.286Z,2.45
2023-03-12T04:35:05.893Z,2.34
2023-03-12T04:37:34.118Z,2.41
2023-03-12T04:40:01.903Z,2.39
2023-03-12T04:42:28.407Z,2.36
2023-03-12T04:44:54.884Z,2.32
2023-03-12T04:47:21.300Z,2.34
2023-03-12T04:49:47.864Z,2.39
2023-03-12T04:52:14.415Z,2.36
2023-03-12T04:54:40.866Z,2.38
2023-03-12T04:57:07.322Z,2.25
2023-03-12T04:59:33.777Z,2.38
2023-03-12T05:02:00.255Z,2.31
2023-03-12T05:04:26.703Z,2.31
2023-03-12T05:06:53.174Z,2.29
2023-03-12T05:09:19.735Z,2.37
2023-03-12T05:11:46.163Z,2.44
2023-03-12T05:14:12.732Z,2.37
2023-03-12T05:16:39.384Z,2.51
2023-03-12T05:19:06.193Z,2.37
2023-03-12T05:21:33.402Z,2.55
2023-03-12T05:24:00.112Z,2.54
2023-03-12T05:26:32.209Z,2.58
2023-03-12T05:29:00.130Z,2.49
2023-03-12T05:31:28.084Z,2.34
2023-03-12T05:33:54.575Z,2.40
2023-03-12T05:36:21.047Z,2.32
2023-03-12T05:38:47.458Z,2.43
2023-03-12T05:41:23.227Z,2.50
2023-03-12T05:43:50.147Z,2.31
2023-03-12T05:46:17.308Z,2.43
2023-03-12T05:48:43.877Z,2.46
2023-03-12T05:51:10.570Z,2.54
2023-03-12T05:53:37.050Z,2.58
2023-03-12T05:56:05.858Z,2.52
2023-03-12T05:58:33.850Z,2.54
2023-03-12T06:01:00.836Z,2.53
2023-03-12T06:03:27.656Z,2.45
2023-03-12T06:05:57.348Z,2.53
2023-03-12T06:08:24.822Z,2.50
2023-03-12T06:10:52.195Z,2.44
2023-03-12T06:13:18.750Z,2.45
2023-03-12T06:15:45.252Z,2.41
2023-03-12T06:18:11.843Z,2.44
2023-03-12T06:20:38.313Z,2.38
2023-03-12T06:23:04.856Z,2.43
2023-03-12T06:25:31.532Z,2.44
2023-03-12T06:27:58.083Z,2.44
2023-03-12T06:30:24.763Z,2.48
2023-03-12T06:32:51.320Z,2.60
2023-03-12T06:35:17.771Z,2.50
2023-03-12T06:37:44.228Z,2.44
2023-03-12T06:40:12.987Z,2.48
2023-03-12T06:42:39.626Z,2.37
2023-03-12T06:45:06.707Z,2.43
2023-03-12T06:47:33.143Z,2.35
2023-03-12T06:49:59.553Z,2.26
2023-03-12T06:52:27.059Z,2.23
2023-03-12T06:54:53.599Z,2.30
2023-03-12T06:57:20.127Z,2.34
2023-03-12T06:59:48.754Z,2.31
2023-03-12T07:02:17.870Z,2.44
2023-03-12T07:04:44.947Z,2.38
2023-03-12T07:07:12.167Z,2.48
2023-03-12T07:09:38.749Z,2.27
2023-03-12T07:12:05.683Z,2.32
2023-03-12T07:14:32.390Z,2.34
2023-03-12T07:17:02.100Z,2.38
2023-03-12T07:19:30.398Z,2.41
2023-03-12T07:21:57.303Z,2.34
2023-03-12T07:24:23.875Z,2.30
2023-03-12T07:26:50.266Z,2.28
2023-03-12T07:29:16.738Z,2.35
2023-03-12T07:31:43.311Z,2.32
2023-03-12T07:34:09.885Z,2.34
2023-03-12T07:36:36.606Z,2.35
2023-03-12T07:39:04.571Z,2.35
2023-03-12T07:41:31.074Z,2.37
2023-03-12T07:43:57.657Z,2.43
2023-03-12T07:46:24.203Z,2.42
2023-03-12T07:48:50.852Z,2.52
2023-03-12T07:51:17.368Z,2.48
2023-03-12T07:53:44.336Z,2.47
2023-03-12T07:56:10.995Z,2.56
2023-03-12T07:58:39.193Z,2.60
2023-03-12T08:01:06.735Z,2.62
2023-03-12T08:03:34.129Z,2.62
2023-03-12T08:06:03.468Z,2.67
2023-03-12T08:08:31.334Z,2.70
2023-03-12T08:10:59.107Z,2.71
2023-03-12T08:13:26.413Z,2.74
2023-03-12T08:15:54.426Z,2.82
2023-03-12T08:18:21.771Z,2.90
2023-03-12T08:20:52.650Z,2.89
2023-03-12T08:23:19.488Z,2.94
2023-03-12T08:25:47.298Z,3.03
2023-03-12T08:28:15.344Z,3.10
2023-03-12T08:30:47.118Z,3.12
2023-03-12T08:33:13.583Z,3.11
2023-03-12T08:35:40.110Z,3.08
2023-03-12T08:38:06.713Z,3.15
2023-03-12T08:40:33.112Z,3.21
2023-03-12T08:42:59.814Z,3.20
2023-03-12T08:45:26.245Z,3.26
2023-03-12T08:47:52.759Z,3.28
2023-03-12T08:50:22.116Z,3.28
2023-03-12T08:52:48.872Z,3.32
2023-03-12T08:55:15.436Z,3.44
2023-03-12T08:57:41.852Z,3.43
2023-03-12T09:00:11.438Z,3.49
2023-03-12T09:02:38.721Z,3.51
2023-03-12T09:05:05.728Z,3.56
2023-03-12T09:07:32.881Z,3.66
2023-03-12T09:09:59.524Z,3.73
2023-03-12T09:12:26.014Z,3.73
2023-03-12T09:15:07.990Z,3.82
2023-03-12T09:17:34.579Z,3.80
2023-03-12T09:20:01.142Z,3.84
2023-03-12T09:22:30.179Z,3.91
2023-03-12T09:24:56.633Z,3.95
2023-03-12T09:27:23.106Z,3.97
2023-03-12T09:30:00.265Z,4.04
2023-03-12T09:32:27.882Z,4.12
2023-03-12T09:34:54.655Z,4.15
2023-03-12T09:37:23.724Z,4.26
2023-03-12T09:39:51.457Z,4.36
2023-03-12T09:42:27.516Z,4.46
2023-03-12T09:44:57.247Z,4.48
2023-03-12T09:47:32.066Z,4.57
2023-03-12T09:50:21.373Z,4.64
2023-03-12T09:52:57.752Z,4.71
2023-03-12T09:55:26.022Z,4.80
2023-03-12T09:57:53.129Z,4.89
2023-03-12T10:00:27.006Z,4.92
2023-03-12T10:03:11.668Z,4.96
2023-03-12T10:05:56.529Z,4.99
2023-03-12T10:08:31.209Z,5.04
2023-03-12T10:11:26.075Z,5.12
2023-03-12T10:14:23.722Z,5.18
2023-03-12T10:17:07.025Z,5.22
2023-03-12T10:19:46.873Z,5.35
2023-03-12T10:22:42.256Z,5.46
2023-03-12T10:25:38.480Z,5.51
2023-03-12T10:28:17.178Z,5.63
2023-03-12T10:30:51.845Z,5.71
2023-03-12T10:33:20.049Z,5.79
2023-03-12T10:35:47.606Z,6.02
2023-03-12T10:38:29.318Z,6.11
2023-03-12T10:40:56.184Z,6.22
2023-03-12T10:43:23.244Z,6.28
2023-03-12T10:46:02.341Z,6.44
2023-03-12T10:48:28.847Z,6.52
2023-03-12T10:51:05.694Z,6.54
2023-03-12T10:53:42.737Z,6.66
2023-03-12T10:56:11.928Z,6.91
2023-03-12T10:58:39.932Z,6.93
2023-03-12T11:01:15.498Z,7.12
2023-03-12T11:03:43.433Z,7.18
2023-03-12T11:06:19.599Z,7.24
2023-03-12T11:09:22.240Z,7.28
2023-03-12T11:11:50.457Z,7.25
2023-03-12T11:14:19.224Z,7.36
2023-03-12T11:16:46.029Z,7.48
2023-03-12T11:19:15.056Z,7.54
2023-03-12T11:21:56.812Z,7.52
2023-03-12T11:24:23.256Z,7.57
2023-03-12T11:26:59.006Z,7.60
2023-03-12T11:29:31.503Z,7.73
2023-03-12T11:32:06.437Z,7.71
2023-03-12T11:34:38.116Z,7.77
2023-03-12T11:37:23.029Z,7.83
2023-03-12T11:40:11.325Z,7.83
2023-03-12T11:42:41.303Z,7.83
2023-03-12T11:45:39.923Z,7.89
2023-03-12T11:48:23.263Z,8.03
2023-03-12T11:51:14.059Z,8.17
2023-03-12T11:54:01.753Z,8.18
2023-03-12T11:56:39.775Z,8.17
2023-03-12T11:59:36.777Z,8.11
2023-03-12T12:02:51.119Z,8.06
2023-03-12T12:05:36.191Z,8.19
2023-03-12T12:08:23.932Z,8.33
2023-03-12T12:11:06.078Z,8.45
2023-03-12T12:13:32.468Z,8.56
2023-03-12T12:16:17.384Z,8.48
2023-03-12T12:19:20.593Z,8.27
2023-03-12T12:21:59.183Z,8.19
2023-03-12T12:24:58.142Z,8.17
2023-03-12T12:27:27.380Z,8.15
2023-03-12T12:30:02.723Z,8.13
2023-03-12T12:32:50.962Z,8.20
2023-03-12T12:35:32.688Z,8.44
2023-03-12T12:37:59.335Z,8.55
2023-03-12T12:40:33.987Z,8.53
2023-03-12T12:43:25.401Z,8.38
2023-03-12T12:45:53.734Z,8.40
2023-03-12T12:48:30.879Z,8.41
2023-03-12T12:51:00.188Z,8.42
2023-03-12T12:53:37.502Z,8.35
2023-03-12T12:56:13.509Z,8.48
2023-03-12T12:59:09.866Z,8.62
2023-03-12T13:01:37.961Z,8.64
2023-03-12T13:04:10.839Z,8.67
2023-03-12T13:07:12.304Z,8.82
2023-03-12T13:09:47.033Z,9.27
2023-03-12T13:12:35.413Z,9.21
2023-03-12T13:15:22.462Z,9.52
2023-03-12T13:17:51.973Z,9.68
2023-03-12T13:20:20.949Z,10.00
2023-03-12T13:23:02.667Z,10.10
2023-03-12T13:25:50.020Z,9.95
2023-03-12T13:28:35.945Z,9.83
2023-03-12T13:31:20.985Z,9.86
2023-03-12T13:33:50.548Z,9.89
2023-03-12T13:36:17.148Z,9.68
2023-03-12T13:38:58.973Z,9.55
2023-03-12T13:41:31.927Z,9.57
2023-03-12T13:43:58.549Z,9.46
2023-03-12T13:46:34.256Z,9.48
2023-03-12T13:49:05.736Z,9.60
2023-03-12T13:51:32.382Z,9.68
2023-03-12T13:54:01.473Z,9.83
2023-03-12T13:56:31.078Z,10.21
2023-03-12T13:59:02.484Z,10.68
2023-03-12T14:01:35.375Z,11.56
2023-03-12T14:04:10.622Z,11.42
2023-03-12T14:06:50.223Z,11.47
2023-03-12T14:09:49.065Z,11.33
2023-03-12T14:12:43.432Z,11.50
2023-03-12T14:15:22.178Z,11.44
2023-03-12T14:17:56.571Z,11.40
2023-03-12T14:20:23.452Z,11.27
2023-03-12T14:22:54.974Z,11.15
2023-03-12T14:25:41.912Z,10.85
2023-03-12T14:28:15.707Z,10.79
2023-03-12T14:30:56.231Z,10.75
2023-03-12T14:33:25.046Z,10.73
2023-03-12T14:35:58.826Z,10.79
2023-03-12T14:38:34.255Z,10.95
2023-03-12T14:41:03.838Z,11.25
2023-03-12T14:43:33.137Z,11.54
2023-03-12T14:46:05.751Z,11.37
2023-03-12T14:48:36.978Z,11.25
2023-03-12T14:51:05.487Z,10.95
2023-03-12T14:53:37.440Z,10.70
2023-03-12T14:56:11.970Z,10.54
2023-03-12T14:58:49.325Z,10.46
2023-03-12T15:01:20.544Z,10.58
2023-03-12T15:03:50.710Z,10.67
2023-03-12T15:06:22.827Z,10.89
2023-03-12T15:08:49.853Z,10.80
2023-03-12T15:11:22.104Z,10.80
2023-03-12T15:13:49.414Z,10.84
2023-03-12T15:16:16.331Z,10.65
2023-03-12T15:18:43.074Z,10.49
2023-03-12T15:21:09.689Z,10.39
2023-03-12T15:23:38.492Z,10.43
2023-03-12T15:26:29.823Z,10.34
2023-03-12T15:29:27.599Z,10.23
2023-03-12T15:31:57.478Z,10.19
2023-03-12T15:34:34.850Z,10.23
2023-03-12T15:37:04.757Z,10.18
2023-03-12T15:39:35.513Z,10.22
2023-03-12T15:42:09.076Z,10.17
2023-03-12T15:44:45.303Z,10.11
2023-03-12T15:47:17.387Z,10.05
2023-03-12T15:49:44.705Z,10.08
2023-03-12T15:52:19.982Z,10.02
2023-03-12T15:55:26.042Z,9.96
2023-03-12T15:57:55.439Z,9.88
2023-03-12T16:00:32.279Z,9.84
2023-03-12T16:03:00.304Z,9.84
2023-03-12T16:05:33.105Z,9.79
2023-03-12T16:08:10.462Z,9.76
2023-03-12T16:10:38.702Z,9.74
2023-03-12T16:13:05.803Z,9.67
2023-03-12T16:15:36.526Z,9.65
2023-03-12T16:18:03.261Z,9.64
2023-03-12T16:20:29.846Z,9.62
2023-03-12T16:22:56.853Z,9.60
2023-03-12T16:25:24.098Z,9.54
2023-03-12T16:27:53.992Z,9.58
2023-03-12T16:30:34.396Z,9.55
2023-03-12T16:33:06.384Z,9.51
2023-03-12T16:35:35.215Z,9.50
2023-03-12T16:38:02.483Z,9.47
2023-03-12T16:40:33.984Z,9.40
2023-03-12T16:43:03.483Z,9.38
2023-03-12T16:45:33.839Z,9.37
2023-03-12T16:48:02.549Z,9.38
2023-03-12T16:50:29.671Z,9.38
2023-03-12T16:52:56.561Z,9.31
2023-03-12T16:55:27.599Z,9.30
2023-03-12T16:57:57.848Z,9.27
2023-03-12T17:00:27.626Z,9.23
2023-03-12T17:02:57.849Z,9.28
2023-03-12T17:05:29.265Z,9.23
2023-03-12T17:07:56.866Z,9.19
2023-03-12T17:10:24.755Z,9.20
2023-03-12T17:12:52.918Z,9.15
2023-03-12T17:15:26.235Z,9.08
2023-03-12T17:17:55.577Z,9.00
2023-03-12T17:20:23.925Z,8.97
2023-03-12T17:22:50.479Z,9.02
2023-03-12T17:25:19.933Z,8.96
2023-03-12T17:27:46.427Z,8.97
2023-03-12T17:30:13.395Z,8.90
2023-03-12T17:32:40.011Z,8.92
2023-03-12T17:35:07.097Z,8.90
2023-03-12T17:37:34.370Z,8.90
2023-03-12T17:40:05.778Z,8.91
2023-03-12T17:42:34.369Z,8.88
2023-03-12T17:45:01.874Z,8.84
2023-03-12T17:47:30.881Z,8.84
2023-03-12T17:49:57.741Z,8.77
2023-03-12T17:52:24.585Z,8.73
2023-03-12T17:54:51.467Z,8.68
2023-03-12T17:57:18.009Z,8.69
2023-03-12T17:59:44.508Z,8.73
2023-03-12T18:02:14.292Z,8.69
2023-03-12T18:04:41.118Z,8.70
2023-03-12T18:07:07.726Z,8.73
2023-03-12T18:09:34.314Z,8.73
2023-03-12T18:12:00.852Z,8.74
2023-03-12T18:14:27.477Z,8.70
2023-03-12T18:16:54.078Z,8.71
2023-03-12T18:19:20.488Z,8.69
2023-03-12T18:21:46.948Z,8.69
2023-03-12T18:24:14.683Z,8.69
2023-03-12T18:26:41.440Z,8.69
2023-03-12T18:29:07.978Z,8.67
2023-03-12T18:31:34.678Z,8.64
2023-03-12T18:34:01.248Z,8.66
2023-03-12T18:36:27.739Z,8.64
2023-03-12T18:38:54.218Z,8.64
2023-03-12T18:41:20.712Z,8.63
2023-03-12T18:43:47.173Z,8.61
2023-03-12T18:46:13.707Z,8.61
2023-03-12T18:48:42.275Z,8.63
2023-03-12T18:51:10.155Z,8.58
2023-03-12T18:53:36.720Z,8.55
2023-03-12T18:56:03.330Z,8.57
2023-03-12T18:58:29.828Z,8.55
2023-03-12T19:00:58.455Z,8.54
2023-03-12T19:03:25.848Z,8.50
2023-03-12T19:06:04.791Z,8.47
2023-03-12T19:08:31.661Z,8.44
2023-03-12T19:10:58.154Z,8.45
2023-03-12T19:13:25.277Z,8.43
2023-03-12T19:15:59.368Z,8.43
2023-03-12T19:18:26.099Z,8.40
2023-03-12T19:20:52.609Z,8.40
2023-03-12T19:23:19.105Z,8.43
2023-03-12T19:25:45.579Z,8.39
2023-03-12T19:28:12.090Z,8.44
2023-03-12T19:30:38.623Z,8.38
2023-03-12T19:33:05.378Z,8.39
2023-03-12T19:35:31.993Z,8.42
2023-03-12T19:37:59.585Z,8.38
2023-03-12T19:40:26.125Z,8.39
2023-03-12T19:42:52.580Z,8.39
2023-03-12T19:45:19.069Z,8.41
2023-03-12T19:47:45.639Z,8.45
2023-03-12T19:50:12.718Z,8.47
2023-03-12T19:52:39.371Z,8.48
2023-03-12T19:55:06.064Z,8.48
2023-03-12T19:57:34.003Z,8.48
2023-03-12T20:00:00.478Z,8.53
2023-03-12T20:02:27.159Z,8.57
2023-03-12T20:04:55.289Z,8.57
2023-03-12T20:07:21.887Z,8.52
2023-03-12T20:09:48.564Z,8.56
2023-03-12T20:12:15.177Z,8.59
2023-03-12T20:14:42.893Z,8.66
2023-03-12T20:17:09.986Z,8.72
2023-03-12T20:19:36.687Z,8.80
2023-03-12T20:22:03.162Z,8.77
2023-03-12T20:24:29.695Z,8.81
2023-03-12T20:26:56.231Z,8.74
2023-03-12T20:29:22.871Z,8.79
2023-03-12T20:31:49.840Z,8.82
2023-03-12T20:34:16.527Z,8.81
2023-03-12T20:36:43.073Z,8.78
2023-03-12T20:39:09.564Z,8.74
2023-03-12T20:41:36.114Z,8.77
2023-03-12T20:44:02.543Z,8.80
2023-03-12T20:46:29.182Z,8.78
2023-03-12T20:48:56.825Z,8.74
2023-03-12T20:51:24.724Z,8.74
2023-03-12T20:53:51.195Z,8.71
2023-03-12T20:56:17.626Z,8.72
2023-03-12T20:58:44.158Z,8.70
2023-03-12T21:01:11.033Z,8.65
2023-03-12T21:03:37.523Z,8.64
2023-03-12T21:06:04.352Z,8.60
2023-03-12T21:08:30.912Z,8.57
2023-03-12T21:10:57.375Z,8.57
2023-03-12T21:13:24.017Z,8.56
2023-03-12T21:15:50.693Z,8.56
2023-03-12T21:18:17.516Z,8.52
2023-03-12T21:20:44.785Z,8.49
2023-03-12T21:23:11.794Z,8.52
2023-03-12T21:25:40.117Z,8.50
2023-03-12T21:28:08.091Z,8.46
2023-03-12T21:30:34.915Z,8.44
2023-03-12T21:33:02.702Z,8.47
2023-03-12T21:35:29.336Z,8.46
2023-03-12T21:37:56.260Z,8.43
2023-03-12T21:40:23.673Z,8.47
2023-03-12T21:42:50.508Z,8.47
2023-03-12T21:45:17.079Z,8.52
2023-03-12T21:47:43.563Z,8.48
2023-03-12T21:50:10.894Z,8.47
2023-03-12T21:52:43.064Z,8.41
2023-03-12T21:55:11.242Z,8.45
2023-03-12T21:57:37.725Z,8.48
2023-03-12T22:00:05.965Z,8.41
2023-03-12T22:02:32.498Z,8.47
2023-03-12T22:05:00.467Z,8.42
2023-03-12T22:07:29.974Z,8.46
2023-03-12T22:09:56.724Z,8.45
2023-03-12T22:12:23.201Z,8.43
2023-03-12T22:14:49.692Z,8.45
2023-03-12T22:17:17.156Z,8.47
2023-03-12T22:19:44.054Z,8.46
2023-03-12T22:22:11.600Z,8.46
2023-03-12T22:24:38.227Z,8.44
2023-03-12T22:27:07.364Z,8.52
2023-03-12T22:29:34.877Z,8.57
2023-03-12T22:32:01.954Z,8.60
2023-03-12T22:34:29.664Z,8.60
2023-03-12T22:36:56.298Z,8.54
2023-03-12T22:39:22.772Z,8.60
2023-03-12T22:41:50.715Z,8.58
2023-03-12T22:44:17.259Z,8.69
2023-03-12T22:46:43.898Z,8.67
2023-03-12T22:49:10.467Z,8.60
2023-03-12T22:51:36.986Z,8.59
2023-03-12T22:54:04.512Z,8.56
2023-03-12T22:56:30.978Z,8.47
2023-03-12T22:58:57.449Z,8.50
2023-03-12T23:01:24.600Z,8.48
2023-03-12T23:03:51.869Z,8.46
2023-03-12T23:06:24.357Z,8.45
2023-03-12T23:08:51.999Z,8.43
2023-03-12T23:11:20.864Z,8.41
2023-03-12T23:13:48.302Z,8.44
2023-03-12T23:16:18.832Z,8.41
2023-03-12T23:18:46.553Z,8.40
2023-03-12T23:21:16.801Z,8.40
2023-03-12T23:23:44.050Z,8.36
2023-03-12T23:26:19.439Z,8.37
2023-03-12T23:28:51.076Z,8.35
2023-03-12T23:31:17.789Z,8.35
2023-03-12T23:33:44.642Z,8.33
2023-03-12T23:36:14.734Z,8.29
2023-03-12T23:38:41.337Z,8.31
2023-03-12T23:41:12.106Z,8.27
2023-03-12T23:43:39.200Z,8.25
2023-03-12T23:46:07.347Z,8.24
2023-03-12T23:48:35.856Z,8.27
2023-03-12T23:51:07.494Z,8.23
2023-03-12T23:53:35.028Z,8.27
2023-03-12T23:56:06.618Z,8.33
2023-03-12T23:58:33.781Z,8.34
